createdAt,value
2023-01-17T00:00:25.752Z,93.47
2023-01-17T00:00:57.408Z,93.78
2023-01-17T00:01:31.814Z,93.86
2023-01-17T00:02:04.133Z,93.90
2023-01-17T00:02:35.949Z,93.60
2023-01-17T00:03:07.617Z,93.06
2023-01-17T00:03:59.680Z,93.79
2023-01-17T00:04:59.220Z,93.14
2023-01-17T00:05:50.877Z,93.59
2023-01-17T00:06:43.184Z,93.70
2023-01-17T00:07:35.714Z,93.26
2023-01-17T00:08:30.984Z,93.67
2023-01-17T00:09:23.495Z,93.76
2023-01-17T00:09:57.032Z,93.38
2023-01-17T00:10:29.092Z,93.07
2023-01-17T00:11:00.779Z,93.20
2023-01-17T00:11:32.464Z,93.76
2023-01-17T00:12:05.527Z,93.80
2023-01-17T00:12:37.645Z,93.96
2023-01-17T00:13:09.346Z,93.62
2023-01-17T00:13:40.978Z,93.14
2023-01-17T00:14:12.637Z,93.23
2023-01-17T00:14:44.596Z,93.03
2023-01-17T00:15:19.642Z,93.62
2023-01-17T00:15:51.345Z,93.59
2023-01-17T00:16:23.142Z,93.67
2023-01-17T00:16:56.113Z,93.83
2023-01-17T00:17:29.663Z,93.49
2023-01-17T00:18:01.308Z,93.10
2023-01-17T00:18:35.597Z,93.61
2023-01-17T00:19:25.559Z,93.91
2023-01-17T00:20:17.701Z,94.02
2023-01-17T00:21:15.953Z,93.25
2023-01-17T00:22:13.360Z,93.57
2023-01-17T00:23:03.764Z,93.77
2023-01-17T00:23:53.562Z,94.07
2023-01-17T00:24:43.369Z,93.86
2023-01-17T00:25:46.143Z,93.99
2023-01-17T00:26:21.785Z,93.85
2023-01-17T00:27:11.868Z,93.49
2023-01-17T00:27:43.452Z,93.48
2023-01-17T00:28:18.135Z,93.46
2023-01-17T00:28:49.738Z,93.45
2023-01-17T00:29:21.340Z,93.89
2023-01-17T00:29:52.982Z,93.26
2023-01-17T00:30:25.946Z,93.56
2023-01-17T00:30:57.972Z,93.23
2023-01-17T00:31:29.579Z,93.31
2023-01-17T00:32:01.182Z,93.04
2023-01-17T00:32:39.749Z,93.15
2023-01-17T00:33:11.512Z,93.23
2023-01-17T00:33:43.278Z,93.44
2023-01-17T00:34:14.868Z,93.80
2023-01-17T00:34:48.313Z,93.59
2023-01-17T00:35:22.545Z,92.93
2023-01-17T00:35:56.069Z,93.76
2023-01-17T00:36:27.678Z,93.20
2023-01-17T00:37:01.396Z,93.04
2023-01-17T00:37:35.619Z,93.41
2023-01-17T00:38:11.318Z,93.05
2023-01-17T00:38:42.934Z,93.32
2023-01-17T00:39:14.530Z,93.30
2023-01-17T00:39:46.106Z,92.96
2023-01-17T00:40:17.889Z,92.58
2023-01-17T00:40:50.536Z,92.66
2023-01-17T00:41:22.110Z,92.46
2023-01-17T00:41:53.680Z,93.31
2023-01-17T00:42:25.280Z,92.64
2023-01-17T00:43:15.756Z,93.50
2023-01-17T00:44:05.615Z,92.65
2023-01-17T00:44:55.515Z,93.32
2023-01-17T00:45:48.628Z,92.88
2023-01-17T00:46:39.110Z,92.80
2023-01-17T00:47:29.781Z,92.35
2023-01-17T00:48:20.026Z,92.71
2023-01-17T00:49:10.671Z,92.59
2023-01-17T00:50:00.871Z,92.71
2023-01-17T00:50:51.813Z,92.63
2023-01-17T00:51:44.842Z,92.67
2023-01-17T00:52:34.956Z,92.11
2023-01-17T00:53:25.072Z,92.38
2023-01-17T00:54:17.508Z,92.44
2023-01-17T00:55:09.228Z,92.81
2023-01-17T00:55:59.308Z,93.10
2023-01-17T00:56:51.877Z,93.24
2023-01-17T00:57:42.009Z,92.98
2023-01-17T00:58:32.110Z,92.22
2023-01-17T00:59:22.344Z,92.30
2023-01-17T01:00:14.860Z,92.44
2023-01-17T01:01:05.132Z,93.04
2023-01-17T01:01:57.531Z,92.19
2023-01-17T01:02:48.343Z,92.68
2023-01-17T01:03:38.833Z,91.92
2023-01-17T01:04:29.058Z,92.06
2023-01-17T01:05:20.263Z,92.01
2023-01-17T01:06:10.653Z,93.02
2023-01-17T01:07:01.367Z,92.21
2023-01-17T01:07:51.912Z,92.76
2023-01-17T01:08:47.943Z,92.48
2023-01-17T01:09:38.541Z,92.47
2023-01-17T01:10:28.934Z,92.73
2023-01-17T01:11:19.001Z,92.44
2023-01-17T01:12:09.157Z,92.36
2023-01-17T01:12:59.637Z,92.66
2023-01-17T01:13:50.576Z,93.26
2023-01-17T01:14:40.951Z,92.74
2023-01-17T01:15:33.469Z,93.24
2023-01-17T01:16:25.875Z,93.12
2023-01-17T01:17:15.963Z,93.50
2023-01-17T01:18:05.863Z,93.35
2023-01-17T01:18:56.241Z,93.08
2023-01-17T01:19:55.000Z,92.86
2023-01-17T01:20:45.215Z,93.04
2023-01-17T01:21:35.666Z,92.72
2023-01-17T01:22:28.155Z,93.49
2023-01-17T01:23:24.709Z,92.54
2023-01-17T01:24:14.786Z,93.64
2023-01-17T01:25:05.283Z,93.16
2023-01-17T01:25:55.577Z,92.91
2023-01-17T01:26:46.131Z,93.34
2023-01-17T01:27:38.641Z,93.13
2023-01-17T01:28:31.777Z,92.48
2023-01-17T01:29:22.075Z,93.36
2023-01-17T01:30:13.786Z,93.17
2023-01-17T01:31:05.575Z,93.30
2023-01-17T01:31:55.948Z,92.77
2023-01-17T01:32:46.524Z,93.11
2023-01-17T01:33:23.447Z,93.29
2023-01-17T01:33:56.191Z,93.27
2023-01-17T01:34:27.864Z,92.78
2023-01-17T01:35:01.813Z,93.06
2023-01-17T01:35:33.519Z,93.41
2023-01-17T01:36:13.131Z,93.23
2023-01-17T01:36:44.810Z,93.35
2023-01-17T01:37:17.580Z,92.78
2023-01-17T01:37:56.521Z,93.65
2023-01-17T01:38:28.255Z,93.58
2023-01-17T01:39:00.015Z,93.27
2023-01-17T01:39:31.711Z,93.44
2023-01-17T01:40:03.866Z,93.20
2023-01-17T01:40:38.358Z,93.07
2023-01-17T01:41:10.007Z,92.55
2023-01-17T01:41:41.650Z,93.37
2023-01-17T01:42:24.071Z,92.79
2023-01-17T01:42:58.197Z,93.33
2023-01-17T01:43:41.864Z,92.73
2023-01-17T01:44:46.295Z,92.82
2023-01-17T01:45:24.460Z,93.37
2023-01-17T01:46:00.259Z,92.58
2023-01-17T01:46:43.611Z,92.98
2023-01-17T01:47:24.051Z,92.44
2023-01-17T01:48:02.784Z,92.28
2023-01-17T01:49:05.690Z,93.35
2023-01-17T01:49:38.513Z,93.07
2023-01-17T01:50:12.404Z,92.77
2023-01-17T01:50:44.097Z,92.36
2023-01-17T01:51:40.176Z,92.65
2023-01-17T01:52:12.518Z,93.21
2023-01-17T01:52:51.103Z,93.31
2023-01-17T01:53:24.297Z,93.05
2023-01-17T01:54:05.180Z,92.85
2023-01-17T01:55:08.343Z,93.15
2023-01-17T01:55:45.639Z,92.83
2023-01-17T01:56:19.965Z,92.91
2023-01-17T01:56:54.535Z,92.83
2023-01-17T01:57:32.237Z,93.32
2023-01-17T01:58:18.799Z,93.22
2023-01-17T01:58:53.185Z,92.78
2023-01-17T01:59:26.155Z,92.82
2023-01-17T02:00:29.882Z,92.88
2023-01-17T02:01:01.867Z,93.13
2023-01-17T02:01:33.752Z,93.16
2023-01-17T02:02:07.542Z,92.46
2023-01-17T02:02:39.448Z,92.52
2023-01-17T02:03:17.758Z,92.77
2023-01-17T02:03:52.733Z,92.82
2023-01-17T02:04:28.292Z,92.82
2023-01-17T02:05:02.513Z,93.00
2023-01-17T02:05:36.584Z,93.18
2023-01-17T02:06:29.995Z,93.11
2023-01-17T02:07:10.472Z,92.54
2023-01-17T02:07:50.257Z,92.48
2023-01-17T02:08:24.102Z,93.18
2023-01-17T02:09:00.885Z,92.75
2023-01-17T02:09:32.746Z,92.64
2023-01-17T02:10:07.091Z,92.59
2023-01-17T02:10:41.775Z,92.65
2023-01-17T02:11:13.675Z,93.26
2023-01-17T02:11:48.861Z,92.77
2023-01-17T02:12:23.902Z,93.31
2023-01-17T02:12:56.257Z,93.35
2023-01-17T02:13:28.552Z,92.67
2023-01-17T02:14:02.113Z,92.84
2023-01-17T02:14:33.794Z,92.73
2023-01-17T02:15:11.436Z,93.23
2023-01-17T02:16:14.373Z,92.93
2023-01-17T02:16:57.921Z,92.89
2023-01-17T02:18:01.638Z,93.80
2023-01-17T02:19:23.010Z,93.88
2023-01-17T02:20:24.439Z,93.80
2023-01-17T02:21:11.610Z,93.79
2023-01-17T02:21:51.268Z,93.19
2023-01-17T02:22:32.021Z,93.30
2023-01-17T02:23:26.563Z,93.92
2023-01-17T02:24:48.498Z,93.33
2023-01-17T02:25:32.317Z,93.91
2023-01-17T02:26:03.994Z,93.84
2023-01-17T02:26:56.557Z,93.27
2023-01-17T02:28:04.316Z,93.23
2023-01-17T02:28:46.968Z,93.35
2023-01-17T02:29:43.475Z,93.74
2023-01-17T02:30:39.413Z,94.04
2023-01-17T02:31:21.294Z,93.78
2023-01-17T02:32:05.124Z,94.22
2023-01-17T02:32:55.213Z,93.76
2023-01-17T02:33:55.323Z,93.40
2023-01-17T02:34:51.263Z,93.58
2023-01-17T02:35:42.297Z,93.85
2023-01-17T02:36:23.162Z,93.71
2023-01-17T02:37:23.241Z,93.92
2023-01-17T02:38:01.770Z,93.60
2023-01-17T02:38:58.179Z,94.20
2023-01-17T02:39:40.182Z,93.43
2023-01-17T02:40:25.061Z,94.22
2023-01-17T02:41:07.606Z,94.06
2023-01-17T02:41:46.094Z,93.60
2023-01-17T02:42:26.433Z,93.38
2023-01-17T02:43:07.437Z,93.61
2023-01-17T02:43:40.237Z,93.46
2023-01-17T02:44:17.054Z,94.14
2023-01-17T02:44:50.716Z,94.13
2023-01-17T02:45:22.920Z,94.13
2023-01-17T02:45:54.757Z,93.49
2023-01-17T02:46:26.462Z,93.29
2023-01-17T02:46:59.354Z,93.35
2023-01-17T02:47:32.512Z,94.03
2023-01-17T02:48:08.179Z,93.46
2023-01-17T02:48:40.258Z,92.90
2023-01-17T02:49:11.986Z,93.11
2023-01-17T02:49:43.665Z,93.42
2023-01-17T02:50:25.462Z,93.21
2023-01-17T02:51:36.772Z,93.63
2023-01-17T02:52:55.755Z,92.98
2023-01-17T02:53:36.194Z,93.41
2023-01-17T02:54:22.134Z,93.23
2023-01-17T02:55:12.202Z,92.97
2023-01-17T02:55:58.309Z,92.53
2023-01-17T02:56:42.004Z,93.10
2023-01-17T02:57:37.352Z,93.31
2023-01-17T02:58:18.891Z,92.68
2023-01-17T02:59:20.792Z,93.20
2023-01-17T03:00:01.709Z,93.12
2023-01-17T03:00:58.142Z,93.23
2023-01-17T03:01:42.007Z,92.46
2023-01-17T03:02:30.767Z,92.16
2023-01-17T03:03:31.817Z,92.20
2023-01-17T03:04:12.539Z,92.71
2023-01-17T03:05:21.369Z,92.62
2023-01-17T03:06:05.865Z,92.65
2023-01-17T03:06:54.629Z,92.76
2023-01-17T03:07:28.284Z,92.61
2023-01-17T03:08:02.119Z,92.78
2023-01-17T03:08:34.484Z,92.20
2023-01-17T03:09:10.401Z,92.56
2023-01-17T03:09:48.185Z,92.00
2023-01-17T03:10:21.651Z,92.28
2023-01-17T03:10:53.831Z,92.09
2023-01-17T03:11:27.203Z,92.74
2023-01-17T03:12:06.739Z,92.87
2023-01-17T03:12:40.497Z,92.22
2023-01-17T03:13:17.250Z,92.95
2023-01-17T03:13:49.209Z,92.72
2023-01-17T03:14:22.088Z,92.50
2023-01-17T03:14:53.792Z,92.10
2023-01-17T03:15:25.693Z,92.17
2023-01-17T03:15:59.377Z,92.30
2023-01-17T03:16:33.997Z,92.23
2023-01-17T03:17:05.755Z,92.81
2023-01-17T03:17:40.990Z,92.40
2023-01-17T03:18:17.006Z,92.70
2023-01-17T03:18:49.370Z,92.85
2023-01-17T03:19:23.108Z,92.85
2023-01-17T03:19:54.747Z,92.44
2023-01-17T03:20:29.557Z,92.38
2023-01-17T03:21:01.237Z,92.25
2023-01-17T03:21:35.093Z,92.47
2023-01-17T03:22:06.749Z,92.81
2023-01-17T03:22:39.089Z,92.45
2023-01-17T03:23:10.757Z,92.18
2023-01-17T03:23:42.440Z,92.28
2023-01-17T03:24:16.906Z,92.31
2023-01-17T03:24:50.867Z,92.63
2023-01-17T03:25:31.247Z,92.27
2023-01-17T03:26:02.932Z,91.95
2023-01-17T03:26:34.648Z,92.54
2023-01-17T03:27:06.436Z,91.40
2023-01-17T03:27:40.819Z,91.84
2023-01-17T03:28:14.778Z,91.49
2023-01-17T03:28:46.480Z,92.40
2023-01-17T03:29:20.220Z,92.25
2023-01-17T03:29:51.880Z,92.06
2023-01-17T03:30:23.607Z,91.75
2023-01-17T03:30:55.491Z,91.82
2023-01-17T03:31:27.169Z,92.50
2023-01-17T03:31:58.837Z,91.74
2023-01-17T03:32:30.523Z,91.77
2023-01-17T03:33:02.202Z,92.50
2023-01-17T03:33:36.073Z,92.54
2023-01-17T03:34:07.711Z,91.78
2023-01-17T03:34:39.363Z,92.56
2023-01-17T03:35:11.009Z,91.67
2023-01-17T03:35:46.384Z,92.39
2023-01-17T03:36:18.616Z,91.77
2023-01-17T03:36:50.257Z,91.75
2023-01-17T03:37:30.565Z,92.21
2023-01-17T03:38:07.741Z,91.92
2023-01-17T03:38:39.441Z,92.03
2023-01-17T03:39:11.698Z,91.85
2023-01-17T03:39:43.323Z,91.16
2023-01-17T03:40:15.142Z,91.57
2023-01-17T03:40:48.310Z,91.17
2023-01-17T03:41:19.964Z,92.12
2023-01-17T03:41:51.812Z,92.17
2023-01-17T03:42:23.491Z,91.47
2023-01-17T03:42:57.333Z,91.36
2023-01-17T03:43:28.995Z,91.62
2023-01-17T03:44:00.991Z,91.89
2023-01-17T03:44:34.217Z,92.04
2023-01-17T03:45:06.235Z,91.56
2023-01-17T03:45:38.033Z,91.57
2023-01-17T03:46:24.518Z,91.75
2023-01-17T03:46:57.469Z,91.43
2023-01-17T03:47:29.112Z,91.74
2023-01-17T03:48:00.890Z,92.33
2023-01-17T03:48:32.659Z,91.70
2023-01-17T03:49:04.299Z,91.96
2023-01-17T03:49:35.917Z,92.45
2023-01-17T03:50:08.202Z,92.10
2023-01-17T03:50:39.831Z,91.86
2023-01-17T03:51:14.050Z,91.69
2023-01-17T03:51:47.597Z,91.88
2023-01-17T03:52:19.312Z,91.86
2023-01-17T03:52:51.317Z,92.02
2023-01-17T03:53:23.061Z,92.44
2023-01-17T03:53:54.730Z,91.99
2023-01-17T03:54:26.350Z,91.77
2023-01-17T03:54:58.001Z,92.08
2023-01-17T03:55:29.672Z,92.46
2023-01-17T03:56:01.323Z,92.39
2023-01-17T03:56:32.936Z,92.44
2023-01-17T03:57:04.976Z,91.64
2023-01-17T03:57:36.676Z,91.80
2023-01-17T03:58:08.294Z,92.01
2023-01-17T03:58:40.325Z,91.81
2023-01-17T03:59:13.229Z,91.96
2023-01-17T03:59:48.656Z,92.53
2023-01-17T04:00:20.957Z,92.34
2023-01-17T04:00:52.654Z,91.78
2023-01-17T04:01:25.079Z,91.85
2023-01-17T04:01:56.884Z,91.87
2023-01-17T04:02:28.597Z,91.65
2023-01-17T04:03:00.265Z,92.51
2023-01-17T04:03:31.914Z,91.83
2023-01-17T04:04:03.757Z,92.08
2023-01-17T04:04:35.409Z,92.41
2023-01-17T04:05:07.369Z,92.29
2023-01-17T04:05:40.401Z,91.67
2023-01-17T04:06:12.070Z,91.75
2023-01-17T04:06:44.288Z,92.15
2023-01-17T04:07:18.569Z,91.92
2023-01-17T04:07:51.726Z,91.79
2023-01-17T04:08:26.125Z,91.77
2023-01-17T04:08:57.746Z,91.52
2023-01-17T04:09:33.960Z,92.02
2023-01-17T04:10:06.302Z,92.02
2023-01-17T04:10:37.957Z,92.20
2023-01-17T04:11:09.615Z,91.63
2023-01-17T04:11:41.235Z,91.46
2023-01-17T04:12:12.961Z,91.57
2023-01-17T04:12:47.165Z,92.20
2023-01-17T04:13:18.902Z,91.75
2023-01-17T04:13:56.457Z,91.95
2023-01-17T04:14:28.137Z,91.43
2023-01-17T04:14:59.774Z,91.67
2023-01-17T04:15:31.481Z,91.84
2023-01-17T04:16:06.905Z,91.46
2023-01-17T04:16:38.866Z,91.93
2023-01-17T04:17:12.710Z,91.62
2023-01-17T04:17:44.431Z,91.48
2023-01-17T04:18:21.003Z,90.77
2023-01-17T04:18:54.753Z,90.82
2023-01-17T04:19:26.462Z,91.42
2023-01-17T04:19:58.134Z,90.67
2023-01-17T04:20:39.241Z,90.86
2023-01-17T04:21:10.935Z,91.15
2023-01-17T04:21:42.567Z,90.83
2023-01-17T04:22:14.494Z,91.13
2023-01-17T04:22:46.134Z,90.61
2023-01-17T04:23:18.264Z,90.98
2023-01-17T04:23:50.151Z,90.36
2023-01-17T04:24:21.765Z,90.36
2023-01-17T04:24:53.461Z,90.82
2023-01-17T04:25:25.784Z,90.79
2023-01-17T04:25:57.437Z,91.06
2023-01-17T04:26:29.090Z,91.22
2023-01-17T04:27:09.108Z,91.05
2023-01-17T04:27:40.781Z,90.54
2023-01-17T04:28:12.696Z,90.77
2023-01-17T04:28:44.599Z,90.73
2023-01-17T04:29:16.307Z,90.75
2023-01-17T04:29:50.031Z,91.80
2023-01-17T04:30:21.681Z,91.27
2023-01-17T04:30:53.364Z,91.15
2023-01-17T04:31:27.392Z,90.65
2023-01-17T04:31:59.059Z,91.21
2023-01-17T04:32:31.493Z,91.30
2023-01-17T04:33:04.385Z,91.55
2023-01-17T04:33:36.041Z,91.35
2023-01-17T04:34:07.689Z,90.99
2023-01-17T04:34:39.318Z,91.16
2023-01-17T04:35:11.189Z,90.39
2023-01-17T04:35:42.812Z,90.32
2023-01-17T04:36:18.248Z,90.71
2023-01-17T04:36:52.022Z,91.02
2023-01-17T04:37:23.666Z,90.58
2023-01-17T04:37:57.045Z,91.07
2023-01-17T04:38:28.727Z,90.80
2023-01-17T04:39:00.357Z,90.40
2023-01-17T04:39:31.972Z,91.03
2023-01-17T04:40:07.445Z,90.84
2023-01-17T04:40:39.087Z,90.64
2023-01-17T04:41:10.815Z,90.89
2023-01-17T04:41:43.854Z,91.15
2023-01-17T04:42:15.466Z,91.18
2023-01-17T04:42:48.172Z,90.47
2023-01-17T04:43:22.203Z,90.61
2023-01-17T04:43:53.929Z,91.16
2023-01-17T04:44:25.559Z,91.02
2023-01-17T04:44:58.564Z,90.20
2023-01-17T04:45:32.481Z,90.69
2023-01-17T04:46:05.878Z,90.51
2023-01-17T04:46:37.552Z,89.86
2023-01-17T04:47:09.179Z,89.99
2023-01-17T04:47:41.200Z,89.61
2023-01-17T04:48:12.944Z,90.41
2023-01-17T04:48:44.592Z,90.34
2023-01-17T04:49:16.206Z,90.58
2023-01-17T04:49:49.639Z,90.64
2023-01-17T04:50:21.303Z,90.52
2023-01-17T04:51:00.652Z,90.36
2023-01-17T04:51:32.329Z,90.88
2023-01-17T04:52:06.425Z,90.35
2023-01-17T04:52:38.128Z,90.47
2023-01-17T04:53:09.801Z,90.62
2023-01-17T04:53:41.590Z,90.23
2023-01-17T04:54:13.280Z,90.86
2023-01-17T04:54:45.270Z,90.15
2023-01-17T04:55:16.942Z,90.76
2023-01-17T04:55:48.625Z,90.82
2023-01-17T04:56:27.731Z,90.05
2023-01-17T04:56:59.356Z,90.64
2023-01-17T04:57:32.222Z,90.49
2023-01-17T04:58:04.119Z,90.18
2023-01-17T04:58:35.770Z,90.58
2023-01-17T04:59:07.432Z,89.84
2023-01-17T04:59:41.678Z,89.93
2023-01-17T05:00:13.863Z,90.24
2023-01-17T05:00:48.632Z,90.12
2023-01-17T05:01:20.452Z,90.74
2023-01-17T05:01:52.139Z,90.71
2023-01-17T05:02:24.984Z,90.44
2023-01-17T05:02:56.775Z,90.22
2023-01-17T05:03:29.494Z,90.39
2023-01-17T05:04:01.186Z,90.66
2023-01-17T05:04:32.824Z,90.62
2023-01-17T05:05:04.909Z,91.03
2023-01-17T05:05:36.565Z,90.74
2023-01-17T05:06:08.267Z,90.40
2023-01-17T05:06:41.466Z,90.21
2023-01-17T05:07:15.690Z,90.94
2023-01-17T05:07:55.744Z,90.71
2023-01-17T05:08:29.816Z,90.70
2023-01-17T05:09:02.860Z,90.43
2023-01-17T05:09:34.479Z,90.32
2023-01-17T05:10:06.531Z,90.50
2023-01-17T05:10:40.067Z,90.91
2023-01-17T05:11:11.707Z,90.83
2023-01-17T05:11:45.275Z,90.80
2023-01-17T05:12:16.944Z,90.18
2023-01-17T05:12:56.709Z,90.10
2023-01-17T05:13:28.342Z,90.20
2023-01-17T05:14:00.215Z,90.88
2023-01-17T05:14:37.032Z,90.94
2023-01-17T05:15:12.482Z,90.26
2023-01-17T05:15:46.402Z,90.94
2023-01-17T05:16:19.481Z,90.70
2023-01-17T05:16:56.484Z,90.21
2023-01-17T05:17:28.152Z,90.58
2023-01-17T05:17:59.814Z,90.95
2023-01-17T05:18:31.516Z,90.21
2023-01-17T05:19:03.291Z,90.92
2023-01-17T05:19:37.339Z,90.57
2023-01-17T05:20:09.453Z,90.48
2023-01-17T05:20:41.470Z,90.19
2023-01-17T05:21:13.581Z,90.33
2023-01-17T05:21:47.286Z,90.78
2023-01-17T05:22:18.957Z,89.95
2023-01-17T05:22:57.330Z,90.16
2023-01-17T05:23:31.065Z,90.95
2023-01-17T05:24:05.101Z,90.26
2023-01-17T05:24:39.250Z,90.70
2023-01-17T05:25:10.929Z,90.07
2023-01-17T05:25:44.373Z,90.70
2023-01-17T05:26:16.313Z,90.88
2023-01-17T05:26:54.735Z,90.33
2023-01-17T05:27:26.999Z,90.59
2023-01-17T05:28:02.412Z,90.46
2023-01-17T05:28:34.061Z,90.14
2023-01-17T05:29:05.790Z,90.47
2023-01-17T05:29:37.627Z,90.64
2023-01-17T05:30:10.098Z,90.69
2023-01-17T05:30:41.832Z,89.91
2023-01-17T05:31:13.619Z,90.74
2023-01-17T05:31:45.281Z,90.47
2023-01-17T05:32:16.908Z,90.13
2023-01-17T05:32:53.361Z,90.07
2023-01-17T05:33:27.899Z,90.54
2023-01-17T05:33:59.540Z,90.50
2023-01-17T05:34:32.004Z,90.18
2023-01-17T05:35:03.807Z,90.07
2023-01-17T05:35:35.915Z,90.11
2023-01-17T05:36:08.026Z,90.35
2023-01-17T05:36:39.668Z,89.98
2023-01-17T05:37:12.871Z,90.37
2023-01-17T05:37:49.193Z,90.09
2023-01-17T05:38:20.890Z,90.49
2023-01-17T05:38:52.532Z,90.43
2023-01-17T05:39:24.145Z,90.16
2023-01-17T05:39:55.751Z,89.81
2023-01-17T05:40:30.820Z,90.25
2023-01-17T05:41:04.724Z,89.97
2023-01-17T05:41:36.351Z,89.90
2023-01-17T05:42:09.728Z,90.09
2023-01-17T05:42:47.888Z,90.13
2023-01-17T05:43:20.340Z,90.29
2023-01-17T05:43:53.604Z,90.85
2023-01-17T05:44:28.583Z,90.64
2023-01-17T05:45:00.216Z,90.61
2023-01-17T05:45:33.457Z,90.27
2023-01-17T05:46:12.728Z,89.95
2023-01-17T05:46:44.414Z,90.02
2023-01-17T05:47:16.082Z,90.00
2023-01-17T05:47:50.717Z,89.97
2023-01-17T05:48:22.422Z,90.14
2023-01-17T05:48:54.062Z,89.76
2023-01-17T05:49:25.795Z,90.16
2023-01-17T05:49:57.394Z,90.31
2023-01-17T05:50:35.273Z,90.13
2023-01-17T05:51:06.948Z,90.36
2023-01-17T05:51:39.624Z,90.75
2023-01-17T05:52:11.290Z,90.50
2023-01-17T05:52:54.775Z,89.95
2023-01-17T05:53:26.415Z,90.40
2023-01-17T05:53:58.179Z,90.70
2023-01-17T05:54:32.707Z,90.88
2023-01-17T05:55:06.675Z,91.04
2023-01-17T05:55:39.503Z,91.07
2023-01-17T05:56:13.866Z,90.38
2023-01-17T05:56:45.577Z,90.75
2023-01-17T05:57:20.049Z,90.73
2023-01-17T05:57:51.979Z,90.80
2023-01-17T05:58:23.632Z,90.39
2023-01-17T05:58:55.295Z,91.08
2023-01-17T05:59:36.533Z,90.91
2023-01-17T06:00:09.804Z,90.77
2023-01-17T06:00:42.287Z,91.39
2023-01-17T06:01:14.054Z,91.33
2023-01-17T06:01:48.581Z,90.91
2023-01-17T06:02:21.849Z,90.80
2023-01-17T06:02:55.428Z,91.54
2023-01-17T06:03:29.738Z,90.85
2023-01-17T06:04:01.387Z,91.25
2023-01-17T06:04:33.213Z,91.67
2023-01-17T06:05:05.560Z,91.73
2023-01-17T06:05:37.807Z,91.48
2023-01-17T06:06:16.905Z,91.14
2023-01-17T06:06:50.927Z,91.95
2023-01-17T06:07:22.611Z,94.53
2023-01-17T06:07:54.848Z,92.78
2023-01-17T06:08:28.688Z,91.97
2023-01-17T06:09:09.552Z,90.96
2023-01-17T06:09:41.228Z,91.38
2023-01-17T06:10:15.477Z,91.14
2023-01-17T06:10:47.614Z,91.79
2023-01-17T06:11:19.447Z,91.54
2023-01-17T06:11:52.324Z,91.23
2023-01-17T06:12:23.954Z,91.81
2023-01-17T06:13:09.864Z,91.74
2023-01-17T06:13:41.615Z,91.86
2023-01-17T06:14:13.241Z,91.17
2023-01-17T06:14:47.555Z,91.88
2023-01-17T06:15:20.394Z,91.34
2023-01-17T06:15:52.364Z,91.22
2023-01-17T06:16:29.108Z,92.29
2023-01-17T06:17:00.824Z,91.71
2023-01-17T06:17:32.519Z,91.58
2023-01-17T06:18:07.955Z,94.73
2023-01-17T06:18:39.661Z,96.42
2023-01-17T06:19:11.312Z,97.99
2023-01-17T06:19:43.046Z,97.96
2023-01-17T06:20:14.700Z,95.51
2023-01-17T06:20:48.903Z,93.28
2023-01-17T06:21:20.634Z,91.63
2023-01-17T06:21:52.314Z,91.80
2023-01-17T06:22:25.169Z,90.97
2023-01-17T06:22:56.858Z,90.82
2023-01-17T06:23:28.534Z,91.46
2023-01-17T06:24:00.558Z,90.52
2023-01-17T06:24:33.912Z,90.60
2023-01-17T06:25:07.892Z,90.84
2023-01-17T06:25:47.887Z,90.57
2023-01-17T06:26:19.719Z,90.46
2023-01-17T06:26:51.402Z,90.63
2023-01-17T06:27:23.067Z,91.27
2023-01-17T06:27:55.355Z,91.35
2023-01-17T06:28:27.043Z,90.97
2023-01-17T06:29:01.036Z,91.37
2023-01-17T06:29:34.859Z,90.82
2023-01-17T06:30:07.291Z,94.50
2023-01-17T06:30:43.724Z,96.12
2023-01-17T06:31:15.494Z,97.23
2023-01-17T06:31:47.109Z,97.81
2023-01-17T06:32:20.985Z,97.03
2023-01-17T06:32:55.537Z,96.56
2023-01-17T06:33:27.221Z,96.86
2023-01-17T06:34:04.479Z,97.08
2023-01-17T06:34:37.752Z,89.99
2023-01-17T06:35:09.637Z,87.89
2023-01-17T06:35:48.150Z,87.35
2023-01-17T06:36:21.446Z,87.63
2023-01-17T06:36:53.438Z,87.32
2023-01-17T06:37:25.728Z,87.50
2023-01-17T06:37:58.311Z,86.89
2023-01-17T06:38:30.154Z,87.33
2023-01-17T06:39:10.984Z,87.25
2023-01-17T06:39:42.627Z,87.23
2023-01-17T06:40:14.353Z,86.82
2023-01-17T06:40:46.026Z,86.94
2023-01-17T06:41:17.662Z,86.91
2023-01-17T06:41:49.358Z,87.43
2023-01-17T06:42:23.882Z,87.18
2023-01-17T06:43:02.812Z,87.85
2023-01-17T06:43:37.372Z,87.53
2023-01-17T06:44:09.902Z,87.88
2023-01-17T06:44:41.561Z,87.70
2023-01-17T06:45:13.292Z,87.29
2023-01-17T06:45:52.521Z,86.93
2023-01-17T06:46:24.276Z,87.80
2023-01-17T06:46:56.020Z,88.27
2023-01-17T06:47:36.436Z,88.31
2023-01-17T06:48:08.132Z,87.92
2023-01-17T06:48:42.593Z,88.31
2023-01-17T06:49:14.844Z,87.77
2023-01-17T06:49:46.891Z,87.98
2023-01-17T06:50:18.657Z,87.61
2023-01-17T06:50:51.784Z,87.95
2023-01-17T06:51:23.422Z,88.03
2023-01-17T06:51:57.241Z,88.59
2023-01-17T06:52:28.903Z,88.36
2023-01-17T06:53:03.225Z,87.91
2023-01-17T06:53:44.026Z,88.82
2023-01-17T06:54:15.703Z,88.54
2023-01-17T06:54:47.397Z,88.50
2023-01-17T06:55:19.195Z,88.69
2023-01-17T06:55:51.092Z,88.72
2023-01-17T06:56:22.734Z,88.18
2023-01-17T06:56:54.553Z,88.38
2023-01-17T06:57:26.201Z,88.74
2023-01-17T06:58:02.025Z,88.47
2023-01-17T06:58:33.822Z,88.16
2023-01-17T06:59:09.007Z,87.92
2023-01-17T06:59:43.492Z,87.78
2023-01-17T07:00:15.874Z,88.10
2023-01-17T07:00:47.657Z,88.40
2023-01-17T07:01:19.663Z,88.29
2023-01-17T07:01:51.426Z,88.42
2023-01-17T07:02:23.243Z,88.35
2023-01-17T07:02:54.951Z,88.73
2023-01-17T07:03:27.331Z,88.09
2023-01-17T07:03:59.217Z,88.60
2023-01-17T07:04:30.943Z,88.17
2023-01-17T07:05:02.588Z,88.74
2023-01-17T07:05:35.093Z,88.93
2023-01-17T07:06:09.610Z,88.77
2023-01-17T07:06:41.261Z,88.24
2023-01-17T07:07:15.287Z,88.30
2023-01-17T07:07:47.153Z,88.70
2023-01-17T07:08:20.500Z,88.68
2023-01-17T07:08:52.703Z,88.13
2023-01-17T07:09:24.408Z,88.11
2023-01-17T07:09:56.034Z,88.52
2023-01-17T07:10:28.982Z,89.03
2023-01-17T07:11:07.976Z,88.75
2023-01-17T07:11:41.126Z,88.40
2023-01-17T07:12:15.749Z,88.84
2023-01-17T07:12:47.407Z,88.40
2023-01-17T07:13:19.046Z,88.46
2023-01-17T07:13:50.764Z,88.17
2023-01-17T07:14:22.399Z,88.21
2023-01-17T07:14:59.091Z,89.18
2023-01-17T07:15:30.835Z,88.98
2023-01-17T07:16:03.744Z,88.26
2023-01-17T07:16:37.526Z,88.42
2023-01-17T07:17:09.210Z,88.24
2023-01-17T07:17:40.938Z,88.94
2023-01-17T07:18:15.025Z,89.19
2023-01-17T07:18:48.729Z,89.01
2023-01-17T07:19:23.652Z,88.42
2023-01-17T07:19:55.361Z,88.38
2023-01-17T07:20:29.144Z,88.30
2023-01-17T07:21:01.216Z,88.66
2023-01-17T07:21:32.854Z,88.43
2023-01-17T07:22:04.515Z,88.76
2023-01-17T07:22:40.535Z,89.08
2023-01-17T07:23:17.005Z,89.12
2023-01-17T07:23:48.964Z,88.67
2023-01-17T07:24:23.165Z,88.41
2023-01-17T07:24:58.586Z,88.71
2023-01-17T07:25:30.715Z,89.02
2023-01-17T07:26:05.466Z,89.71
2023-01-17T07:26:40.817Z,88.65
2023-01-17T07:27:12.444Z,88.88
2023-01-17T07:27:44.225Z,88.34
2023-01-17T07:28:15.857Z,88.09
2023-01-17T07:28:47.500Z,88.48
2023-01-17T07:29:19.510Z,88.47
2023-01-17T07:29:54.065Z,88.25
2023-01-17T07:30:27.008Z,88.93
2023-01-17T07:31:00.808Z,89.20
2023-01-17T07:31:36.448Z,89.19
2023-01-17T07:32:12.144Z,88.97
2023-01-17T07:32:43.790Z,88.30
2023-01-17T07:33:15.772Z,88.29
2023-01-17T07:33:47.405Z,88.60
2023-01-17T07:34:21.304Z,88.82
2023-01-17T07:34:53.370Z,88.83
2023-01-17T07:35:28.267Z,87.99
2023-01-17T07:36:05.001Z,88.14
2023-01-17T07:36:38.574Z,87.96
2023-01-17T07:37:10.210Z,88.00
2023-01-17T07:37:47.690Z,87.71
2023-01-17T07:38:20.128Z,87.76
2023-01-17T07:38:51.761Z,88.56
2023-01-17T07:39:23.409Z,87.91
2023-01-17T07:39:55.077Z,87.48
2023-01-17T07:40:27.260Z,87.81
2023-01-17T07:41:03.020Z,88.11
2023-01-17T07:41:41.161Z,87.29
2023-01-17T07:42:12.869Z,87.28
2023-01-17T07:42:45.190Z,87.70
2023-01-17T07:43:17.384Z,88.25
2023-01-17T07:43:55.495Z,88.36
2023-01-17T07:44:27.907Z,87.37
2023-01-17T07:45:02.980Z,87.19
2023-01-17T07:45:34.620Z,87.17
2023-01-17T07:46:10.443Z,87.75
2023-01-17T07:46:42.183Z,87.47
2023-01-17T07:47:16.700Z,86.98
2023-01-17T07:47:52.930Z,87.55
2023-01-17T07:48:25.397Z,87.42
2023-01-17T07:49:01.779Z,87.32
2023-01-17T07:49:33.445Z,87.17
2023-01-17T07:50:07.703Z,87.91